sensor_id;sensor_type;location;lat;lon;timestamp;P1;durP1;ratioP1;P2;durP2;ratioP2
66559;SDS011;53413;49.878;8.142;2022-08-21T00:00:32;8.88;;;3.20;;
66559;SDS011;53413;49.878;8.142;2022-08-21T00:03:02;9.60;;;2.73;;
66559;SDS011;53413;49.878;8.142;2022-08-21T00:05:30;9.30;;;3.30;;
66559;SDS011;53413;49.878;8.142;2022-08-21T00:07:57;9.07;;;3.20;;
66559;SDS011;53413;49.878;8.142;2022-08-21T00:10:22;9.77;;;3.23;;
66559;SDS011;53413;49.878;8.142;2022-08-21T00:12:49;9.05;;;3.08;;
66559;SDS011;53413;49.878;8.142;2022-08-21T00:15:19;10.50;;;3.30;;
66559;SDS011;53413;49.878;8.142;2022-08-21T00:17:47;8.32;;;3.20;;
66559;SDS011;53413;49.878;8.142;2022-08-21T00:20:14;10.50;;;3.45;;
66559;SDS011;53413;49.878;8.142;2022-08-21T00:22:40;10.50;;;3.40;;
66559;SDS011;53413;49.878;8.142;2022-08-21T00:25:06;10.38;;;3.50;;
66559;SDS011;53413;49.878;8.142;2022-08-21T00:27:33;6.38;;;2.88;;
66559;SDS011;53413;49.878;8.142;2022-08-21T00:29:59;7.85;;;3.17;;
66559;SDS011;53413;49.878;8.142;2022-08-21T00:32:24;8.80;;;3.10;;
66559;SDS011;53413;49.878;8.142;2022-08-21T00:34:51;10.23;;;3.25;;
66559;SDS011;53413;49.878;8.142;2022-08-21T00:37:17;9.33;;;3.50;;
66559;SDS011;53413;49.878;8.142;2022-08-21T00:39:43;7.78;;;3.20;;
66559;SDS011;53413;49.878;8.142;2022-08-21T00:42:10;9.55;;;3.38;;
66559;SDS011;53413;49.878;8.142;2022-08-21T00:44:40;10.32;;;3.42;;
66559;SDS011;53413;49.878;8.142;2022-08-21T00:47:06;10.07;;;3.35;;
66559;SDS011;53413;49.878;8.142;2022-08-21T00:49:33;9.43;;;3.70;;
66559;SDS011;53413;49.878;8.142;2022-08-21T00:51:59;7.77;;;3.47;;
66559;SDS011;53413;49.878;8.142;2022-08-21T00:54:26;9.88;;;3.33;;
66559;SDS011;53413;49.878;8.142;2022-08-21T00:56:56;8.88;;;3.13;;
66559;SDS011;53413;49.878;8.142;2022-08-21T00:59:25;10.77;;;3.60;;
66559;SDS011;53413;49.878;8.142;2022-08-21T01:01:52;9.20;;;3.55;;
66559;SDS011;53413;49.878;8.142;2022-08-21T01:04:18;7.95;;;3.55;;
66559;SDS011;53413;49.878;8.142;2022-08-21T01:06:44;9.25;;;3.55;;
66559;SDS011;53413;49.878;8.142;2022-08-21T01:09:10;8.40;;;3.10;;
66559;SDS011;53413;49.878;8.142;2022-08-21T01:11:36;7.43;;;3.30;;
66559;SDS011;53413;49.878;8.142;2022-08-21T01:14:02;10.88;;;3.50;;
66559;SDS011;53413;49.878;8.142;2022-08-21T01:16:27;9.33;;;3.47;;
66559;SDS011;53413;49.878;8.142;2022-08-21T01:18:54;9.52;;;3.70;;
66559;SDS011;53413;49.878;8.142;2022-08-21T01:21:23;7.97;;;3.17;;
66559;SDS011;53413;49.878;8.142;2022-08-21T01:23:52;10.63;;;3.40;;
66559;SDS011;53413;49.878;8.142;2022-08-21T01:26:21;8.90;;;3.00;;
66559;SDS011;53413;49.878;8.142;2022-08-21T01:29:00;7.38;;;3.13;;
66559;SDS011;53413;49.878;8.142;2022-08-21T01:31:29;8.50;;;3.63;;
66559;SDS011;53413;49.878;8.142;2022-08-21T01:33:56;8.02;;;3.28;;
66559;SDS011;53413;49.878;8.142;2022-08-21T01:36:22;9.40;;;3.30;;
66559;SDS011;53413;49.878;8.142;2022-08-21T01:38:48;9.07;;;3.53;;
66559;SDS011;53413;49.878;8.142;2022-08-21T01:41:14;9.93;;;3.63;;
66559;SDS011;53413;49.878;8.142;2022-08-21T01:43:41;9.30;;;3.67;;
66559;SDS011;53413;49.878;8.142;2022-08-21T01:46:08;8.55;;;3.67;;
66559;SDS011;53413;49.878;8.142;2022-08-21T01:48:34;7.95;;;3.50;;
66559;SDS011;53413;49.878;8.142;2022-08-21T01:51:00;8.02;;;3.47;;
66559;SDS011;53413;49.878;8.142;2022-08-21T01:53:25;8.20;;;3.40;;
66559;SDS011;53413;49.878;8.142;2022-08-21T01:55:51;10.05;;;3.65;;
66559;SDS011;53413;49.878;8.142;2022-08-21T01:58:16;9.83;;;3.33;;
66559;SDS011;53413;49.878;8.142;2022-08-21T02:00:42;9.53;;;3.60;;
66559;SDS011;53413;49.878;8.142;2022-08-21T02:03:08;8.65;;;3.55;;
66559;SDS011;53413;49.878;8.142;2022-08-21T02:05:33;8.07;;;3.50;;
66559;SDS011;53413;49.878;8.142;2022-08-21T02:07:58;8.73;;;3.27;;
66559;SDS011;53413;49.878;8.142;2022-08-21T02:10:25;8.00;;;3.40;;
66559;SDS011;53413;49.878;8.142;2022-08-21T02:12:53;10.07;;;3.58;;
66559;SDS011;53413;49.878;8.142;2022-08-21T02:15:19;11.50;;;3.53;;
66559;SDS011;53413;49.878;8.142;2022-08-21T02:17:46;9.95;;;3.90;;
66559;SDS011;53413;49.878;8.142;2022-08-21T02:20:21;10.88;;;3.78;;
66559;SDS011;53413;49.878;8.142;2022-08-21T02:22:50;10.25;;;3.67;;
66559;SDS011;53413;49.878;8.142;2022-08-21T02:25:16;10.02;;;3.55;;
66559;SDS011;53413;49.878;8.142;2022-08-21T02:27:43;12.20;;;3.90;;
66559;SDS011;53413;49.878;8.142;2022-08-21T02:30:16;11.35;;;4.35;;
66559;SDS011;53413;49.878;8.142;2022-08-21T02:32:44;8.63;;;4.07;;
66559;SDS011;53413;49.878;8.142;2022-08-21T02:35:11;8.90;;;3.97;;
66559;SDS011;53413;49.878;8.142;2022-08-21T02:37:44;10.30;;;3.85;;
66559;SDS011;53413;49.878;8.142;2022-08-21T02:40:22;10.57;;;3.90;;
66559;SDS011;53413;49.878;8.142;2022-08-21T02:42:50;9.20;;;3.85;;
66559;SDS011;53413;49.878;8.142;2022-08-21T02:45:16;11.03;;;4.20;;
66559;SDS011;53413;49.878;8.142;2022-08-21T02:47:52;10.65;;;4.07;;
66559;SDS011;53413;49.878;8.142;2022-08-21T02:50:25;10.95;;;3.90;;
66559;SDS011;53413;49.878;8.142;2022-08-21T02:52:53;9.20;;;3.90;;
66559;SDS011;53413;49.878;8.142;2022-08-21T02:55:20;9.82;;;3.70;;
66559;SDS011;53413;49.878;8.142;2022-08-21T02:57:47;9.07;;;3.78;;
66559;SDS011;53413;49.878;8.142;2022-08-21T03:00:13;8.43;;;3.67;;
66559;SDS011;53413;49.878;8.142;2022-08-21T03:02:39;9.30;;;3.95;;
66559;SDS011;53413;49.878;8.142;2022-08-21T03:05:06;9.33;;;3.80;;
66559;SDS011;53413;49.878;8.142;2022-08-21T03:07:33;8.18;;;3.83;;
66559;SDS011;53413;49.878;8.142;2022-08-21T03:09:59;11.27;;;4.30;;
66559;SDS011;53413;49.878;8.142;2022-08-21T03:12:25;11.40;;;4.13;;
66559;SDS011;53413;49.878;8.142;2022-08-21T03:14:50;10.95;;;4.10;;
66559;SDS011;53413;49.878;8.142;2022-08-21T03:17:16;9.38;;;3.80;;
66559;SDS011;53413;49.878;8.142;2022-08-21T03:19:41;7.73;;;3.73;;
66559;SDS011;53413;49.878;8.142;2022-08-21T03:22:06;11.47;;;4.17;;
66559;SDS011;53413;49.878;8.142;2022-08-21T03:24:32;9.73;;;4.07;;
66559;SDS011;53413;49.878;8.142;2022-08-21T03:26:57;10.80;;;3.92;;
66559;SDS011;53413;49.878;8.142;2022-08-21T03:29:23;10.70;;;4.20;;
66559;SDS011;53413;49.878;8.142;2022-08-21T03:31:48;10.90;;;4.30;;
66559;SDS011;53413;49.878;8.142;2022-08-21T03:34:13;9.57;;;4.03;;
66559;SDS011;53413;49.878;8.142;2022-08-21T03:36:39;12.13;;;3.93;;
66559;SDS011;53413;49.878;8.142;2022-08-21T03:39:05;11.00;;;4.32;;
66559;SDS011;53413;49.878;8.142;2022-08-21T03:41:30;11.00;;;4.20;;
66559;SDS011;53413;49.878;8.142;2022-08-21T03:43:56;9.13;;;3.90;;
66559;SDS011;53413;49.878;8.142;2022-08-21T03:46:21;10.35;;;4.20;;
66559;SDS011;53413;49.878;8.142;2022-08-21T03:48:46;11.85;;;4.22;;
66559;SDS011;53413;49.878;8.142;2022-08-21T03:51:12;10.40;;;4.30;;
66559;SDS011;53413;49.878;8.142;2022-08-21T03:53:37;10.77;;;4.20;;
66559;SDS011;53413;49.878;8.142;2022-08-21T03:56:04;11.27;;;4.35;;
66559;SDS011;53413;49.878;8.142;2022-08-21T03:58:30;13.57;;;4.38;;
66559;SDS011;53413;49.878;8.142;2022-08-21T04:00:56;12.53;;;3.97;;
66559;SDS011;53413;49.878;8.142;2022-08-21T04:03:23;12.75;;;4.60;;
66559;SDS011;53413;49.878;8.142;2022-08-21T04:05:49;10.80;;;4.18;;
66559;SDS011;53413;49.878;8.142;2022-08-21T04:08:14;10.20;;;4.47;;
66559;SDS011;53413;49.878;8.142;2022-08-21T04:10:43;10.90;;;4.10;;
66559;SDS011;53413;49.878;8.142;2022-08-21T04:13:11;10.50;;;3.60;;
66559;SDS011;53413;49.878;8.142;2022-08-21T04:15:37;10.07;;;4.03;;
66559;SDS011;53413;49.878;8.142;2022-08-21T04:18:03;11.25;;;4.45;;
66559;SDS011;53413;49.878;8.142;2022-08-21T04:20:29;11.45;;;4.32;;
66559;SDS011;53413;49.878;8.142;2022-08-21T04:22:55;10.47;;;4.50;;
66559;SDS011;53413;49.878;8.142;2022-08-21T04:25:21;11.07;;;4.20;;
66559;SDS011;53413;49.878;8.142;2022-08-21T04:27:48;10.35;;;4.28;;
66559;SDS011;53413;49.878;8.142;2022-08-21T04:30:14;11.53;;;4.33;;
66559;SDS011;53413;49.878;8.142;2022-08-21T04:32:44;10.27;;;4.43;;
66559;SDS011;53413;49.878;8.142;2022-08-21T04:35:11;9.57;;;4.18;;
66559;SDS011;53413;49.878;8.142;2022-08-21T04:37:37;9.93;;;4.22;;
66559;SDS011;53413;49.878;8.142;2022-08-21T04:40:03;10.77;;;4.10;;
66559;SDS011;53413;49.878;8.142;2022-08-21T04:42:29;9.38;;;4.22;;
66559;SDS011;53413;49.878;8.142;2022-08-21T04:44:55;12.00;;;4.30;;
66559;SDS011;53413;49.878;8.142;2022-08-21T04:47:21;11.30;;;4.70;;
66559;SDS011;53413;49.878;8.142;2022-08-21T04:49:47;11.40;;;4.33;;
66559;SDS011;53413;49.878;8.142;2022-08-21T04:52:13;11.60;;;4.10;;
66559;SDS011;53413;49.878;8.142;2022-08-21T04:54:44;11.38;;;4.28;;
66559;SDS011;53413;49.878;8.142;2022-08-21T04:57:10;14.10;;;4.30;;
66559;SDS011;53413;49.878;8.142;2022-08-21T04:59:43;10.57;;;4.20;;
66559;SDS011;53413;49.878;8.142;2022-08-21T05:02:12;9.27;;;3.97;;
66559;SDS011;53413;49.878;8.142;2022-08-21T05:04:42;10.15;;;4.10;;
66559;SDS011;53413;49.878;8.142;2022-08-21T05:07:12;11.43;;;4.60;;
66559;SDS011;53413;49.878;8.142;2022-08-21T05:09:41;11.70;;;4.10;;
66559;SDS011;53413;49.878;8.142;2022-08-21T05:12:07;7.77;;;3.67;;
66559;SDS011;53413;49.878;8.142;2022-08-21T05:14:32;10.32;;;4.22;;
66559;SDS011;53413;49.878;8.142;2022-08-21T05:16:58;10.70;;;3.73;;
66559;SDS011;53413;49.878;8.142;2022-08-21T05:19:24;9.40;;;4.15;;
66559;SDS011;53413;49.878;8.142;2022-08-21T05:21:50;9.93;;;3.90;;
66559;SDS011;53413;49.878;8.142;2022-08-21T05:24:15;10.93;;;4.30;;
66559;SDS011;53413;49.878;8.142;2022-08-21T05:26:40;13.55;;;4.03;;
66559;SDS011;53413;49.878;8.142;2022-08-21T05:29:06;7.47;;;3.77;;
66559;SDS011;53413;49.878;8.142;2022-08-21T05:31:31;10.90;;;3.87;;
66559;SDS011;53413;49.878;8.142;2022-08-21T05:33:57;10.45;;;3.70;;
66559;SDS011;53413;49.878;8.142;2022-08-21T05:36:22;8.40;;;3.67;;
66559;SDS011;53413;49.878;8.142;2022-08-21T05:38:48;10.37;;;3.80;;
66559;SDS011;53413;49.878;8.142;2022-08-21T05:41:13;9.77;;;4.00;;
66559;SDS011;53413;49.878;8.142;2022-08-21T05:43:39;9.13;;;3.90;;
66559;SDS011;53413;49.878;8.142;2022-08-21T05:46:06;9.25;;;3.70;;
66559;SDS011;53413;49.878;8.142;2022-08-21T05:48:33;10.35;;;3.95;;
66559;SDS011;53413;49.878;8.142;2022-08-21T05:51:03;8.48;;;3.60;;
66559;SDS011;53413;49.878;8.142;2022-08-21T05:53:30;9.43;;;3.75;;
66559;SDS011;53413;49.878;8.142;2022-08-21T05:55:56;9.70;;;3.80;;
66559;SDS011;53413;49.878;8.142;2022-08-21T05:58:21;10.60;;;3.77;;
66559;SDS011;53413;49.878;8.142;2022-08-21T06:00:48;11.20;;;3.95;;
66559;SDS011;53413;49.878;8.142;2022-08-21T06:03:22;8.48;;;3.60;;
66559;SDS011;53413;49.878;8.142;2022-08-21T06:05:50;10.10;;;3.85;;
66559;SDS011;53413;49.878;8.142;2022-08-21T06:08:16;10.18;;;3.70;;
66559;SDS011;53413;49.878;8.142;2022-08-21T06:10:44;9.35;;;3.53;;
66559;SDS011;53413;49.878;8.142;2022-08-21T06:13:10;8.88;;;3.70;;
66559;SDS011;53413;49.878;8.142;2022-08-21T06:15:36;9.32;;;3.60;;
66559;SDS011;53413;49.878;8.142;2022-08-21T06:18:02;8.85;;;3.75;;
66559;SDS011;53413;49.878;8.142;2022-08-21T06:20:28;9.27;;;3.85;;
66559;SDS011;53413;49.878;8.142;2022-08-21T06:22:53;7.30;;;3.70;;
66559;SDS011;53413;49.878;8.142;2022-08-21T06:25:19;7.22;;;3.85;;
66559;SDS011;53413;49.878;8.142;2022-08-21T06:27:45;7.50;;;3.83;;
66559;SDS011;53413;49.878;8.142;2022-08-21T06:30:11;8.23;;;3.88;;
66559;SDS011;53413;49.878;8.142;2022-08-21T06:32:36;8.73;;;3.70;;
66559;SDS011;53413;49.878;8.142;2022-08-21T06:35:04;8.43;;;3.97;;
66559;SDS011;53413;49.878;8.142;2022-08-21T06:37:30;9.18;;;4.38;;
66559;SDS011;53413;49.878;8.142;2022-08-21T06:39:56;9.57;;;4.47;;
66559;SDS011;53413;49.878;8.142;2022-08-21T06:42:21;6.63;;;3.70;;
66559;SDS011;53413;49.878;8.142;2022-08-21T06:44:47;6.93;;;4.10;;
66559;SDS011;53413;49.878;8.142;2022-08-21T06:47:12;7.30;;;3.90;;
66559;SDS011;53413;49.878;8.142;2022-08-21T06:49:38;6.88;;;4.53;;
66559;SDS011;53413;49.878;8.142;2022-08-21T06:52:07;7.33;;;3.40;;
66559;SDS011;53413;49.878;8.142;2022-08-21T06:54:35;6.85;;;4.10;;
66559;SDS011;53413;49.878;8.142;2022-08-21T06:57:00;8.90;;;3.97;;
66559;SDS011;53413;49.878;8.142;2022-08-21T06:59:26;8.50;;;4.10;;
66559;SDS011;53413;49.878;8.142;2022-08-21T07:01:51;8.63;;;3.70;;
66559;SDS011;53413;49.878;8.142;2022-08-21T07:04:17;7.63;;;3.90;;
66559;SDS011;53413;49.878;8.142;2022-08-21T07:06:43;5.63;;;3.70;;
66559;SDS011;53413;49.878;8.142;2022-08-21T07:09:08;7.50;;;4.00;;
66559;SDS011;53413;49.878;8.142;2022-08-21T07:11:35;7.77;;;3.90;;
66559;SDS011;53413;49.878;8.142;2022-08-21T07:14:02;8.70;;;4.00;;
66559;SDS011;53413;49.878;8.142;2022-08-21T07:16:27;8.23;;;4.00;;
66559;SDS011;53413;49.878;8.142;2022-08-21T07:18:53;6.87;;;3.87;;
66559;SDS011;53413;49.878;8.142;2022-08-21T07:21:18;7.20;;;4.10;;
66559;SDS011;53413;49.878;8.142;2022-08-21T07:23:45;6.93;;;3.72;;
66559;SDS011;53413;49.878;8.142;2022-08-21T07:26:13;6.53;;;4.10;;
66559;SDS011;53413;49.878;8.142;2022-08-21T07:28:40;6.38;;;3.92;;
66559;SDS011;53413;49.878;8.142;2022-08-21T07:31:05;7.17;;;3.67;;
66559;SDS011;53413;49.878;8.142;2022-08-21T07:33:32;7.07;;;3.92;;
66559;SDS011;53413;49.878;8.142;2022-08-21T07:35:58;8.68;;;4.00;;
66559;SDS011;53413;49.878;8.142;2022-08-21T07:38:25;6.47;;;4.57;;
66559;SDS011;53413;49.878;8.142;2022-08-21T07:40:51;7.03;;;4.20;;
66559;SDS011;53413;49.878;8.142;2022-08-21T07:43:19;7.45;;;4.13;;
66559;SDS011;53413;49.878;8.142;2022-08-21T07:45:46;7.15;;;4.05;;
66559;SDS011;53413;49.878;8.142;2022-08-21T07:48:12;7.00;;;4.20;;
66559;SDS011;53413;49.878;8.142;2022-08-21T07:50:37;6.55;;;3.90;;
66559;SDS011;53413;49.878;8.142;2022-08-21T07:53:04;7.53;;;3.97;;
66559;SDS011;53413;49.878;8.142;2022-08-21T07:55:29;7.13;;;4.70;;
66559;SDS011;53413;49.878;8.142;2022-08-21T07:57:55;7.83;;;3.97;;
66559;SDS011;53413;49.878;8.142;2022-08-21T08:00:21;7.63;;;4.70;;
66559;SDS011;53413;49.878;8.142;2022-08-21T08:02:49;8.00;;;4.47;;
66559;SDS011;53413;49.878;8.142;2022-08-21T08:05:17;8.85;;;5.07;;
66559;SDS011;53413;49.878;8.142;2022-08-21T08:07:44;7.63;;;4.77;;
66559;SDS011;53413;49.878;8.142;2022-08-21T08:10:09;8.02;;;4.60;;
66559;SDS011;53413;49.878;8.142;2022-08-21T08:12:36;7.90;;;4.77;;
66559;SDS011;53413;49.878;8.142;2022-08-21T08:15:04;7.70;;;4.50;;
66559;SDS011;53413;49.878;8.142;2022-08-21T08:17:32;9.07;;;5.13;;
66559;SDS011;53413;49.878;8.142;2022-08-21T08:19:58;8.07;;;4.80;;
66559;SDS011;53413;49.878;8.142;2022-08-21T08:22:27;8.02;;;4.72;;
66559;SDS011;53413;49.878;8.142;2022-08-21T08:24:53;8.97;;;5.00;;
66559;SDS011;53413;49.878;8.142;2022-08-21T08:27:19;7.97;;;5.03;;
66559;SDS011;53413;49.878;8.142;2022-08-21T08:29:45;7.78;;;4.82;;
66559;SDS011;53413;49.878;8.142;2022-08-21T08:32:12;7.00;;;4.75;;
66559;SDS011;53413;49.878;8.142;2022-08-21T08:34:37;9.13;;;5.10;;
66559;SDS011;53413;49.878;8.142;2022-08-21T08:37:05;8.63;;;4.93;;
66559;SDS011;53413;49.878;8.142;2022-08-21T08:39:32;7.05;;;5.00;;
66559;SDS011;53413;49.878;8.142;2022-08-21T08:42:22;7.57;;;4.35;;
66559;SDS011;53413;49.878;8.142;2022-08-21T08:44:46;7.68;;;4.43;;
66559;SDS011;53413;49.878;8.142;2022-08-21T08:47:14;7.22;;;3.67;;
66559;SDS011;53413;49.878;8.142;2022-08-21T08:49:49;7.85;;;4.18;;
66559;SDS011;53413;49.878;8.142;2022-08-21T08:52:22;7.60;;;4.20;;
66559;SDS011;53413;49.878;8.142;2022-08-21T08:55:06;7.23;;;3.70;;
66559;SDS011;53413;49.878;8.142;2022-08-21T08:57:37;6.78;;;4.00;;
66559;SDS011;53413;49.878;8.142;2022-08-21T09:00:10;7.63;;;4.07;;
66559;SDS011;53413;49.878;8.142;2022-08-21T09:02:38;7.80;;;4.13;;
66559;SDS011;53413;49.878;8.142;2022-08-21T09:05:06;6.93;;;3.70;;
66559;SDS011;53413;49.878;8.142;2022-08-21T09:27:33;7.15;;;4.07;;
66559;SDS011;53413;49.878;8.142;2022-08-21T09:29:59;6.57;;;3.53;;
66559;SDS011;53413;49.878;8.142;2022-08-21T09:32:29;7.77;;;4.47;;
66559;SDS011;53413;49.878;8.142;2022-08-21T09:37:21;6.23;;;3.80;;
66559;SDS011;53413;49.878;8.142;2022-08-21T09:39:46;7.55;;;3.90;;
66559;SDS011;53413;49.878;8.142;2022-08-21T09:42:12;7.43;;;3.63;;
66559;SDS011;53413;49.878;8.142;2022-08-21T09:44:48;6.63;;;4.20;;
66559;SDS011;53413;49.878;8.142;2022-08-21T09:47:13;7.18;;;3.55;;
66559;SDS011;53413;49.878;8.142;2022-08-21T09:49:43;5.82;;;3.60;;
66559;SDS011;53413;49.878;8.142;2022-08-21T09:52:19;8.50;;;4.10;;
66559;SDS011;53413;49.878;8.142;2022-08-21T09:54:49;6.80;;;3.72;;
66559;SDS011;53413;49.878;8.142;2022-08-21T09:57:19;6.55;;;3.00;;
66559;SDS011;53413;49.878;8.142;2022-08-21T10:00:37;6.95;;;3.78;;
66559;SDS011;53413;49.878;8.142;2022-08-21T10:03:07;8.53;;;3.97;;
66559;SDS011;53413;49.878;8.142;2022-08-21T10:05:33;7.90;;;3.90;;
66559;SDS011;53413;49.878;8.142;2022-08-21T10:07:59;6.40;;;3.63;;
66559;SDS011;53413;49.878;8.142;2022-08-21T10:10:27;8.15;;;3.95;;
66559;SDS011;53413;49.878;8.142;2022-08-21T10:20:52;7.40;;;3.60;;
66559;SDS011;53413;49.878;8.142;2022-08-21T10:34:28;6.60;;;3.40;;
66559;SDS011;53413;49.878;8.142;2022-08-21T10:37:18;7.60;;;3.15;;
66559;SDS011;53413;49.878;8.142;2022-08-21T10:42:52;7.28;;;3.20;;
66559;SDS011;53413;49.878;8.142;2022-08-21T10:54:48;7.45;;;3.15;;
66559;SDS011;53413;49.878;8.142;2022-08-21T10:57:27;6.70;;;3.30;;
66559;SDS011;53413;49.878;8.142;2022-08-21T11:00:09;6.20;;;2.80;;
66559;SDS011;53413;49.878;8.142;2022-08-21T11:05:31;8.82;;;3.28;;
66559;SDS011;53413;49.878;8.142;2022-08-21T11:08:06;6.85;;;3.22;;
66559;SDS011;53413;49.878;8.142;2022-08-21T11:10:38;8.70;;;3.10;;
66559;SDS011;53413;49.878;8.142;2022-08-21T11:13:14;7.93;;;2.90;;
66559;SDS011;53413;49.878;8.142;2022-08-21T11:24:32;8.43;;;3.03;;
66559;SDS011;53413;49.878;8.142;2022-08-21T11:26:49;7.32;;;3.10;;
66559;SDS011;53413;49.878;8.142;2022-08-21T11:35:39;7.25;;;3.20;;
66559;SDS011;53413;49.878;8.142;2022-08-21T11:50:44;7.60;;;3.00;;
66559;SDS011;53413;49.878;8.142;2022-08-21T11:53:15;7.78;;;3.00;;
66559;SDS011;53413;49.878;8.142;2022-08-21T11:55:48;6.35;;;2.97;;
66559;SDS011;53413;49.878;8.142;2022-08-21T12:01:09;7.75;;;3.00;;
66559;SDS011;53413;49.878;8.142;2022-08-21T12:03:38;5.57;;;2.90;;
66559;SDS011;53413;49.878;8.142;2022-08-21T12:06:08;7.95;;;3.20;;
66559;SDS011;53413;49.878;8.142;2022-08-21T12:08:40;6.88;;;2.83;;
66559;SDS011;53413;49.878;8.142;2022-08-21T12:11:08;5.22;;;2.80;;
66559;SDS011;53413;49.878;8.142;2022-08-21T12:16:32;5.90;;;2.80;;
66559;SDS011;53413;49.878;8.142;2022-08-21T12:22:06;7.68;;;2.60;;
66559;SDS011;53413;49.878;8.142;2022-08-21T12:24:38;6.70;;;2.85;;
66559;SDS011;53413;49.878;8.142;2022-08-21T12:27:26;7.07;;;2.70;;
66559;SDS011;53413;49.878;8.142;2022-08-21T12:30:06;5.83;;;2.50;;
66559;SDS011;53413;49.878;8.142;2022-08-21T12:33:05;6.25;;;2.70;;
66559;SDS011;53413;49.878;8.142;2022-08-21T12:35:48;6.28;;;2.47;;
66559;SDS011;53413;49.878;8.142;2022-08-21T12:40:43;5.80;;;2.50;;
66559;SDS011;53413;49.878;8.142;2022-08-21T12:43:12;8.77;;;2.63;;
66559;SDS011;53413;49.878;8.142;2022-08-21T12:45:44;7.15;;;2.75;;
66559;SDS011;53413;49.878;8.142;2022-08-21T12:48:20;7.40;;;2.67;;
66559;SDS011;53413;49.878;8.142;2022-08-21T12:50:51;7.00;;;2.70;;
66559;SDS011;53413;49.878;8.142;2022-08-21T12:53:37;5.82;;;2.70;;
66559;SDS011;53413;49.878;8.142;2022-08-21T12:56:10;5.97;;;2.60;;
66559;SDS011;53413;49.878;8.142;2022-08-21T12:58:39;7.53;;;2.80;;
66559;SDS011;53413;49.878;8.142;2022-08-21T13:01:38;5.65;;;2.47;;
66559;SDS011;53413;49.878;8.142;2022-08-21T13:04:11;6.00;;;2.40;;
66559;SDS011;53413;49.878;8.142;2022-08-21T13:06:43;6.95;;;2.72;;
66559;SDS011;53413;49.878;8.142;2022-08-21T13:09:11;6.43;;;2.50;;
66559;SDS011;53413;49.878;8.142;2022-08-21T13:11:43;5.30;;;2.15;;
66559;SDS011;53413;49.878;8.142;2022-08-21T13:14:15;5.65;;;2.30;;
66559;SDS011;53413;49.878;8.142;2022-08-21T13:16:48;6.90;;;2.50;;
66559;SDS011;53413;49.878;8.142;2022-08-21T13:19:18;5.85;;;2.40;;
66559;SDS011;53413;49.878;8.142;2022-08-21T13:21:45;6.50;;;2.50;;
66559;SDS011;53413;49.878;8.142;2022-08-21T13:26:39;7.30;;;2.47;;
66559;SDS011;53413;49.878;8.142;2022-08-21T13:29:12;5.60;;;2.63;;
66559;SDS011;53413;49.878;8.142;2022-08-21T13:31:41;6.38;;;2.40;;
66559;SDS011;53413;49.878;8.142;2022-08-21T13:34:11;6.65;;;2.75;;
66559;SDS011;53413;49.878;8.142;2022-08-21T13:36:39;7.27;;;2.50;;
66559;SDS011;53413;49.878;8.142;2022-08-21T13:39:15;6.50;;;2.30;;
66559;SDS011;53413;49.878;8.142;2022-08-21T13:41:44;5.25;;;2.70;;
66559;SDS011;53413;49.878;8.142;2022-08-21T13:44:19;6.00;;;2.60;;
66559;SDS011;53413;49.878;8.142;2022-08-21T13:46:56;5.53;;;2.22;;
66559;SDS011;53413;49.878;8.142;2022-08-21T13:49:26;6.10;;;2.47;;
66559;SDS011;53413;49.878;8.142;2022-08-21T13:51:56;5.55;;;2.40;;
66559;SDS011;53413;49.878;8.142;2022-08-21T13:54:25;5.90;;;2.50;;
66559;SDS011;53413;49.878;8.142;2022-08-21T13:56:54;7.35;;;2.60;;
66559;SDS011;53413;49.878;8.142;2022-08-21T13:59:24;5.32;;;2.33;;
66559;SDS011;53413;49.878;8.142;2022-08-21T14:01:55;5.90;;;2.50;;
66559;SDS011;53413;49.878;8.142;2022-08-21T14:04:35;5.95;;;2.03;;
66559;SDS011;53413;49.878;8.142;2022-08-21T14:07:02;5.17;;;2.50;;
66559;SDS011;53413;49.878;8.142;2022-08-21T14:09:41;5.15;;;2.30;;
66559;SDS011;53413;49.878;8.142;2022-08-21T14:12:52;6.20;;;2.40;;
66559;SDS011;53413;49.878;8.142;2022-08-21T14:15:03;5.40;;;2.30;;
66559;SDS011;53413;49.878;8.142;2022-08-21T14:17:34;4.53;;;2.30;;
66559;SDS011;53413;49.878;8.142;2022-08-21T14:20:04;6.10;;;2.40;;
66559;SDS011;53413;49.878;8.142;2022-08-21T14:22:36;6.53;;;2.40;;
66559;SDS011;53413;49.878;8.142;2022-08-21T14:27:30;6.63;;;2.70;;
66559;SDS011;53413;49.878;8.142;2022-08-21T14:30:03;5.22;;;2.40;;
66559;SDS011;53413;49.878;8.142;2022-08-21T14:32:38;5.73;;;2.50;;
66559;SDS011;53413;49.878;8.142;2022-08-21T14:35:06;7.38;;;2.60;;
66559;SDS011;53413;49.878;8.142;2022-08-21T14:37:32;5.07;;;2.40;;
66559;SDS011;53413;49.878;8.142;2022-08-21T14:39:57;5.73;;;2.40;;
66559;SDS011;53413;49.878;8.142;2022-08-21T14:42:23;5.55;;;2.20;;
66559;SDS011;53413;49.878;8.142;2022-08-21T14:44:49;5.88;;;2.42;;
66559;SDS011;53413;49.878;8.142;2022-08-21T14:47:15;5.90;;;2.45;;
66559;SDS011;53413;49.878;8.142;2022-08-21T14:49:41;7.13;;;2.47;;
66559;SDS011;53413;49.878;8.142;2022-08-21T14:52:07;4.38;;;1.80;;
66559;SDS011;53413;49.878;8.142;2022-08-21T14:54:33;6.05;;;2.30;;
66559;SDS011;53413;49.878;8.142;2022-08-21T14:57:00;5.53;;;2.03;;
66559;SDS011;53413;49.878;8.142;2022-08-21T14:59:28;5.50;;;2.20;;
66559;SDS011;53413;49.878;8.142;2022-08-21T15:01:54;4.73;;;2.40;;
66559;SDS011;53413;49.878;8.142;2022-08-21T15:04:21;5.43;;;2.38;;
66559;SDS011;53413;49.878;8.142;2022-08-21T15:06:46;6.30;;;2.43;;
66559;SDS011;53413;49.878;8.142;2022-08-21T15:09:11;6.90;;;2.35;;
66559;SDS011;53413;49.878;8.142;2022-08-21T15:11:37;5.97;;;2.20;;
66559;SDS011;53413;49.878;8.142;2022-08-21T15:14:03;6.07;;;2.10;;
66559;SDS011;53413;49.878;8.142;2022-08-21T15:16:33;4.35;;;2.17;;
66559;SDS011;53413;49.878;8.142;2022-08-21T15:18:58;7.03;;;2.33;;
66559;SDS011;53413;49.878;8.142;2022-08-21T15:21:24;5.13;;;2.40;;
66559;SDS011;53413;49.878;8.142;2022-08-21T15:23:49;6.57;;;2.70;;
66559;SDS011;53413;49.878;8.142;2022-08-21T15:26:15;6.03;;;2.30;;
66559;SDS011;53413;49.878;8.142;2022-08-21T15:28:40;5.40;;;2.30;;
66559;SDS011;53413;49.878;8.142;2022-08-21T15:31:07;6.27;;;2.23;;
66559;SDS011;53413;49.878;8.142;2022-08-21T15:33:32;6.17;;;2.20;;
66559;SDS011;53413;49.878;8.142;2022-08-21T15:35:58;6.97;;;2.47;;
66559;SDS011;53413;49.878;8.142;2022-08-21T15:38:24;5.55;;;2.33;;
66559;SDS011;53413;49.878;8.142;2022-08-21T15:40:50;6.10;;;2.30;;
66559;SDS011;53413;49.878;8.142;2022-08-21T15:43:21;5.25;;;2.30;;
66559;SDS011;53413;49.878;8.142;2022-08-21T15:45:47;5.25;;;2.30;;
66559;SDS011;53413;49.878;8.142;2022-08-21T15:48:13;4.87;;;2.30;;
66559;SDS011;53413;49.878;8.142;2022-08-21T15:50:38;4.90;;;2.30;;
66559;SDS011;53413;49.878;8.142;2022-08-21T15:53:04;6.67;;;2.23;;
66559;SDS011;53413;49.878;8.142;2022-08-21T15:55:31;5.37;;;2.40;;
66559;SDS011;53413;49.878;8.142;2022-08-21T15:57:59;6.18;;;2.38;;
66559;SDS011;53413;49.878;8.142;2022-08-21T16:00:25;5.68;;;2.40;;
66559;SDS011;53413;49.878;8.142;2022-08-21T16:02:56;5.00;;;2.40;;
66559;SDS011;53413;49.878;8.142;2022-08-21T16:05:24;6.57;;;2.30;;
66559;SDS011;53413;49.878;8.142;2022-08-21T16:07:50;5.20;;;2.17;;
66559;SDS011;53413;49.878;8.142;2022-08-21T16:10:17;12.15;;;8.38;;
66559;SDS011;53413;49.878;8.142;2022-08-21T16:12:46;14.38;;;8.63;;
66559;SDS011;53413;49.878;8.142;2022-08-21T16:15:15;9.30;;;5.35;;
66559;SDS011;53413;49.878;8.142;2022-08-21T16:17:42;6.23;;;3.00;;
66559;SDS011;53413;49.878;8.142;2022-08-21T16:20:13;5.65;;;2.90;;
66559;SDS011;53413;49.878;8.142;2022-08-21T16:22:41;5.50;;;2.22;;
66559;SDS011;53413;49.878;8.142;2022-08-21T16:25:07;4.97;;;2.27;;
66559;SDS011;53413;49.878;8.142;2022-08-21T16:27:33;5.90;;;3.05;;
66559;SDS011;53413;49.878;8.142;2022-08-21T16:29:59;5.50;;;2.38;;
66559;SDS011;53413;49.878;8.142;2022-08-21T16:32:25;5.13;;;2.30;;